sensor_id;sensor_type;location;lat;lon;timestamp;P1;durP1;ratioP1;P2;durP2;ratioP2
21761;SDS011;11203;50.870;20.682;2022-07-12T00:01:30;11.77;;;9.88;;
21761;SDS011;11203;50.870;20.682;2022-07-12T00:03:56;13.48;;;11.75;;
21761;SDS011;11203;50.870;20.682;2022-07-12T00:06:22;16.20;;;12.18;;
21761;SDS011;11203;50.870;20.682;2022-07-12T00:08:48;14.43;;;12.93;;
21761;SDS011;11203;50.870;20.682;2022-07-12T00:11:14;16.67;;;13.30;;
21761;SDS011;11203;50.870;20.682;2022-07-12T00:13:40;15.52;;;12.98;;
21761;SDS011;11203;50.870;20.682;2022-07-12T00:16:06;14.25;;;12.02;;
21761;SDS011;11203;50.870;20.682;2022-07-12T00:18:32;13.30;;;11.90;;
21761;SDS011;11203;50.870;20.682;2022-07-12T00:20:58;15.50;;;10.73;;
21761;SDS011;11203;50.870;20.682;2022-07-12T00:23:25;11.68;;;10.02;;
21761;SDS011;11203;50.870;20.682;2022-07-12T00:25:51;12.63;;;10.18;;
21761;SDS011;11203;50.870;20.682;2022-07-12T00:28:17;12.40;;;9.45;;
21761;SDS011;11203;50.870;20.682;2022-07-12T00:30:43;18.30;;;11.10;;
21761;SDS011;11203;50.870;20.682;2022-07-12T00:33:09;14.20;;;12.73;;
21761;SDS011;11203;50.870;20.682;2022-07-12T00:35:35;15.10;;;12.27;;
21761;SDS011;11203;50.870;20.682;2022-07-12T00:38:01;20.30;;;11.43;;
21761;SDS011;11203;50.870;20.682;2022-07-12T00:40:27;11.65;;;10.45;;
21761;SDS011;11203;50.870;20.682;2022-07-12T00:42:53;13.95;;;9.80;;
21761;SDS011;11203;50.870;20.682;2022-07-12T00:45:19;10.55;;;9.48;;
21761;SDS011;11203;50.870;20.682;2022-07-12T00:47:46;10.52;;;8.48;;
21761;SDS011;11203;50.870;20.682;2022-07-12T00:50:19;10.15;;;7.78;;
21761;SDS011;11203;50.870;20.682;2022-07-12T00:52:48;8.38;;;6.18;;
21761;SDS011;11203;50.870;20.682;2022-07-12T00:55:18;8.90;;;5.70;;
21761;SDS011;11203;50.870;20.682;2022-07-12T00:57:45;7.07;;;5.90;;
21761;SDS011;11203;50.870;20.682;2022-07-12T01:00:16;6.55;;;5.95;;
21761;SDS011;11203;50.870;20.682;2022-07-12T01:02:46;7.20;;;6.50;;
21761;SDS011;11203;50.870;20.682;2022-07-12T01:05:12;9.35;;;7.00;;
21761;SDS011;11203;50.870;20.682;2022-07-12T01:07:39;10.10;;;6.90;;
21761;SDS011;11203;50.870;20.682;2022-07-12T01:10:06;8.60;;;7.50;;
21761;SDS011;11203;50.870;20.682;2022-07-12T01:12:33;9.18;;;7.53;;
21761;SDS011;11203;50.870;20.682;2022-07-12T01:14:59;9.50;;;7.78;;
21761;SDS011;11203;50.870;20.682;2022-07-12T01:17:27;9.25;;;8.27;;
21761;SDS011;11203;50.870;20.682;2022-07-12T01:19:54;10.20;;;8.75;;
21761;SDS011;11203;50.870;20.682;2022-07-12T01:22:26;10.82;;;9.73;;
21761;SDS011;11203;50.870;20.682;2022-07-12T01:24:55;12.15;;;9.93;;
21761;SDS011;11203;50.870;20.682;2022-07-12T01:27:21;11.25;;;10.15;;
21761;SDS011;11203;50.870;20.682;2022-07-12T01:29:48;13.43;;;10.45;;
21761;SDS011;11203;50.870;20.682;2022-07-12T01:32:14;12.35;;;10.13;;
21761;SDS011;11203;50.870;20.682;2022-07-12T01:34:51;11.73;;;10.32;;
21761;SDS011;11203;50.870;20.682;2022-07-12T01:37:28;10.88;;;9.88;;
21761;SDS011;11203;50.870;20.682;2022-07-12T01:39:58;11.13;;;10.02;;
21761;SDS011;11203;50.870;20.682;2022-07-12T01:42:26;20.80;;;11.88;;
21761;SDS011;11203;50.870;20.682;2022-07-12T01:44:54;13.30;;;11.43;;
21761;SDS011;11203;50.870;20.682;2022-07-12T01:47:21;13.55;;;10.48;;
21761;SDS011;11203;50.870;20.682;2022-07-12T01:49:49;13.68;;;10.07;;
21761;SDS011;11203;50.870;20.682;2022-07-12T01:52:15;16.73;;;9.65;;
21761;SDS011;11203;50.870;20.682;2022-07-12T01:54:42;13.43;;;9.35;;
21761;SDS011;11203;50.870;20.682;2022-07-12T01:57:09;13.40;;;9.63;;
21761;SDS011;11203;50.870;20.682;2022-07-12T01:59:35;11.68;;;8.80;;
21761;SDS011;11203;50.870;20.682;2022-07-12T02:02:01;10.27;;;9.20;;
21761;SDS011;11203;50.870;20.682;2022-07-12T02:04:28;8.90;;;8.10;;
21761;SDS011;11203;50.870;20.682;2022-07-12T02:06:55;10.07;;;9.07;;
21761;SDS011;11203;50.870;20.682;2022-07-12T02:09:22;10.07;;;9.07;;
21761;SDS011;11203;50.870;20.682;2022-07-12T02:11:49;9.43;;;7.95;;
21761;SDS011;11203;50.870;20.682;2022-07-12T02:14:16;11.02;;;9.18;;
21761;SDS011;11203;50.870;20.682;2022-07-12T02:16:42;10.10;;;8.32;;
21761;SDS011;11203;50.870;20.682;2022-07-12T02:19:09;9.48;;;7.22;;
21761;SDS011;11203;50.870;20.682;2022-07-12T02:21:36;8.55;;;7.03;;
21761;SDS011;11203;50.870;20.682;2022-07-12T02:24:03;7.03;;;6.18;;
21761;SDS011;11203;50.870;20.682;2022-07-12T02:26:30;8.40;;;6.72;;
21761;SDS011;11203;50.870;20.682;2022-07-12T02:29:02;7.70;;;6.88;;
21761;SDS011;11203;50.870;20.682;2022-07-12T02:31:29;7.43;;;6.63;;
21761;SDS011;11203;50.870;20.682;2022-07-12T02:33:56;6.68;;;6.07;;
21761;SDS011;11203;50.870;20.682;2022-07-12T02:36:23;8.38;;;6.35;;
21761;SDS011;11203;50.870;20.682;2022-07-12T02:38:49;9.52;;;6.70;;
21761;SDS011;11203;50.870;20.682;2022-07-12T02:41:15;7.35;;;6.65;;
21761;SDS011;11203;50.870;20.682;2022-07-12T02:43:42;11.35;;;7.28;;
21761;SDS011;11203;50.870;20.682;2022-07-12T02:46:12;7.82;;;6.47;;
21761;SDS011;11203;50.870;20.682;2022-07-12T02:48:39;11.40;;;6.85;;
21761;SDS011;11203;50.870;20.682;2022-07-12T02:51:06;9.70;;;6.85;;
21761;SDS011;11203;50.870;20.682;2022-07-12T02:53:34;9.32;;;5.55;;
21761;SDS011;11203;50.870;20.682;2022-07-12T02:56:00;8.73;;;6.68;;
21761;SDS011;11203;50.870;20.682;2022-07-12T02:58:26;7.57;;;6.38;;
21761;SDS011;11203;50.870;20.682;2022-07-12T03:00:53;6.60;;;5.85;;
21761;SDS011;11203;50.870;20.682;2022-07-12T03:03:19;5.82;;;5.32;;
21761;SDS011;11203;50.870;20.682;2022-07-12T03:05:45;8.88;;;6.30;;
21761;SDS011;11203;50.870;20.682;2022-07-12T03:08:11;7.55;;;6.57;;
21761;SDS011;11203;50.870;20.682;2022-07-12T03:10:38;7.22;;;6.35;;
21761;SDS011;11203;50.870;20.682;2022-07-12T03:13:05;8.70;;;6.65;;
21761;SDS011;11203;50.870;20.682;2022-07-12T03:15:32;8.45;;;6.57;;
21761;SDS011;11203;50.870;20.682;2022-07-12T03:17:58;10.27;;;5.88;;
21761;SDS011;11203;50.870;20.682;2022-07-12T03:20:26;6.70;;;6.05;;
21761;SDS011;11203;50.870;20.682;2022-07-12T03:22:56;8.68;;;6.22;;
21761;SDS011;11203;50.870;20.682;2022-07-12T03:25:23;7.20;;;5.97;;
21761;SDS011;11203;50.870;20.682;2022-07-12T03:27:49;8.68;;;6.97;;
21761;SDS011;11203;50.870;20.682;2022-07-12T03:30:16;8.45;;;6.68;;
21761;SDS011;11203;50.870;20.682;2022-07-12T03:32:42;6.22;;;5.63;;
21761;SDS011;11203;50.870;20.682;2022-07-12T03:35:09;7.90;;;6.60;;
21761;SDS011;11203;50.870;20.682;2022-07-12T03:37:46;11.70;;;9.23;;
21761;SDS011;11203;50.870;20.682;2022-07-12T03:40:17;8.15;;;6.75;;
21761;SDS011;11203;50.870;20.682;2022-07-12T03:42:45;7.78;;;6.05;;
21761;SDS011;11203;50.870;20.682;2022-07-12T03:45:12;7.75;;;5.35;;
21761;SDS011;11203;50.870;20.682;2022-07-12T03:47:39;8.68;;;5.30;;
21761;SDS011;11203;50.870;20.682;2022-07-12T03:50:07;7.22;;;5.68;;
21761;SDS011;11203;50.870;20.682;2022-07-12T03:52:37;5.97;;;4.88;;
21761;SDS011;11203;50.870;20.682;2022-07-12T03:55:04;7.72;;;5.60;;
21761;SDS011;11203;50.870;20.682;2022-07-12T03:57:31;6.25;;;5.65;;
21761;SDS011;11203;50.870;20.682;2022-07-12T03:59:57;6.65;;;5.50;;
21761;SDS011;11203;50.870;20.682;2022-07-12T04:02:23;7.78;;;6.60;;
21761;SDS011;11203;50.870;20.682;2022-07-12T04:04:50;8.70;;;5.80;;
21761;SDS011;11203;50.870;20.682;2022-07-12T04:07:16;7.25;;;6.35;;
21761;SDS011;11203;50.870;20.682;2022-07-12T04:09:43;8.10;;;6.60;;
21761;SDS011;11203;50.870;20.682;2022-07-12T04:12:10;7.53;;;6.72;;
21761;SDS011;11203;50.870;20.682;2022-07-12T04:14:36;6.07;;;5.53;;
21761;SDS011;11203;50.870;20.682;2022-07-12T04:17:02;7.50;;;6.65;;
21761;SDS011;11203;50.870;20.682;2022-07-12T04:19:30;7.30;;;6.55;;
21761;SDS011;11203;50.870;20.682;2022-07-12T04:22:00;7.95;;;6.13;;
21761;SDS011;11203;50.870;20.682;2022-07-12T04:24:26;9.20;;;7.53;;
21761;SDS011;11203;50.870;20.682;2022-07-12T04:26:53;10.13;;;7.80;;
21761;SDS011;11203;50.870;20.682;2022-07-12T04:29:19;8.82;;;7.85;;
21761;SDS011;11203;50.870;20.682;2022-07-12T04:31:45;9.77;;;7.68;;
21761;SDS011;11203;50.870;20.682;2022-07-12T04:34:11;8.65;;;6.95;;
21761;SDS011;11203;50.870;20.682;2022-07-12T04:36:46;9.82;;;7.10;;
21761;SDS011;11203;50.870;20.682;2022-07-12T04:39:13;10.20;;;7.47;;
21761;SDS011;11203;50.870;20.682;2022-07-12T04:41:39;9.43;;;8.50;;
21761;SDS011;11203;50.870;20.682;2022-07-12T04:44:05;8.50;;;7.70;;
21761;SDS011;11203;50.870;20.682;2022-07-12T04:46:32;8.73;;;7.93;;
21761;SDS011;11203;50.870;20.682;2022-07-12T04:48:59;8.60;;;7.88;;
21761;SDS011;11203;50.870;20.682;2022-07-12T04:51:25;9.00;;;7.15;;
21761;SDS011;11203;50.870;20.682;2022-07-12T04:53:52;8.10;;;7.30;;
21761;SDS011;11203;50.870;20.682;2022-07-12T04:56:18;8.18;;;7.28;;
21761;SDS011;11203;50.870;20.682;2022-07-12T04:58:44;7.82;;;7.03;;
21761;SDS011;11203;50.870;20.682;2022-07-12T05:01:10;7.30;;;6.47;;
21761;SDS011;11203;50.870;20.682;2022-07-12T05:03:36;7.05;;;6.50;;
21761;SDS011;11203;50.870;20.682;2022-07-12T05:06:02;7.18;;;6.57;;
21761;SDS011;11203;50.870;20.682;2022-07-12T05:08:28;7.72;;;7.10;;
21761;SDS011;11203;50.870;20.682;2022-07-12T05:10:54;8.00;;;7.22;;
21761;SDS011;11203;50.870;20.682;2022-07-12T05:13:20;9.27;;;7.38;;
21761;SDS011;11203;50.870;20.682;2022-07-12T05:15:46;7.75;;;7.05;;
21761;SDS011;11203;50.870;20.682;2022-07-12T05:18:12;8.52;;;6.93;;
21761;SDS011;11203;50.870;20.682;2022-07-12T05:20:38;7.82;;;6.93;;
21761;SDS011;11203;50.870;20.682;2022-07-12T05:23:04;6.70;;;6.10;;
21761;SDS011;11203;50.870;20.682;2022-07-12T05:25:30;6.40;;;5.80;;
21761;SDS011;11203;50.870;20.682;2022-07-12T05:27:56;6.68;;;6.03;;
21761;SDS011;11203;50.870;20.682;2022-07-12T05:30:22;10.18;;;6.45;;
21761;SDS011;11203;50.870;20.682;2022-07-12T05:32:48;6.70;;;5.90;;
21761;SDS011;11203;50.870;20.682;2022-07-12T05:35:14;6.40;;;5.90;;
21761;SDS011;11203;50.870;20.682;2022-07-12T05:37:40;8.82;;;5.18;;
21761;SDS011;11203;50.870;20.682;2022-07-12T05:40:06;5.93;;;4.53;;
21761;SDS011;11203;50.870;20.682;2022-07-12T05:42:33;6.28;;;4.63;;
21761;SDS011;11203;50.870;20.682;2022-07-12T05:44:59;5.32;;;4.82;;
21761;SDS011;11203;50.870;20.682;2022-07-12T05:47:25;8.27;;;5.25;;
21761;SDS011;11203;50.870;20.682;2022-07-12T05:49:51;8.77;;;6.97;;
21761;SDS011;11203;50.870;20.682;2022-07-12T05:52:17;6.15;;;4.72;;
21761;SDS011;11203;50.870;20.682;2022-07-12T05:55:02;5.10;;;4.60;;
21761;SDS011;11203;50.870;20.682;2022-07-12T05:57:28;6.55;;;5.28;;
21761;SDS011;11203;50.870;20.682;2022-07-12T05:59:54;6.40;;;4.72;;
21761;SDS011;11203;50.870;20.682;2022-07-12T06:02:21;6.00;;;5.50;;
21761;SDS011;11203;50.870;20.682;2022-07-12T06:04:48;4.97;;;4.47;;
21761;SDS011;11203;50.870;20.682;2022-07-12T06:07:13;5.43;;;4.80;;
21761;SDS011;11203;50.870;20.682;2022-07-12T06:09:39;7.63;;;4.78;;
21761;SDS011;11203;50.870;20.682;2022-07-12T06:12:06;4.72;;;3.80;;
21761;SDS011;11203;50.870;20.682;2022-07-12T06:14:32;8.93;;;4.20;;
21761;SDS011;11203;50.870;20.682;2022-07-12T06:16:58;5.53;;;3.80;;
21761;SDS011;11203;50.870;20.682;2022-07-12T06:19:25;7.13;;;3.53;;
21761;SDS011;11203;50.870;20.682;2022-07-12T06:21:52;6.50;;;3.75;;
21761;SDS011;11203;50.870;20.682;2022-07-12T06:24:17;4.93;;;2.85;;
21761;SDS011;11203;50.870;20.682;2022-07-12T06:26:43;3.53;;;3.22;;
21761;SDS011;11203;50.870;20.682;2022-07-12T06:29:09;4.13;;;3.00;;
21761;SDS011;11203;50.870;20.682;2022-07-12T06:31:35;4.75;;;2.80;;
21761;SDS011;11203;50.870;20.682;2022-07-12T06:34:02;3.53;;;2.28;;
21761;SDS011;11203;50.870;20.682;2022-07-12T06:36:28;5.70;;;3.00;;
21761;SDS011;11203;50.870;20.682;2022-07-12T06:38:53;6.43;;;3.17;;
21761;SDS011;11203;50.870;20.682;2022-07-12T06:41:20;8.52;;;2.80;;
21761;SDS011;11203;50.870;20.682;2022-07-12T06:43:45;3.67;;;2.70;;
21761;SDS011;11203;50.870;20.682;2022-07-12T06:46:11;3.00;;;1.92;;
21761;SDS011;11203;50.870;20.682;2022-07-12T06:48:37;3.80;;;1.38;;
21761;SDS011;11203;50.870;20.682;2022-07-12T06:51:03;2.05;;;1.33;;
21761;SDS011;11203;50.870;20.682;2022-07-12T06:53:29;4.53;;;2.20;;
21761;SDS011;11203;50.870;20.682;2022-07-12T06:55:55;14.43;;;2.85;;
21761;SDS011;11203;50.870;20.682;2022-07-12T06:58:22;5.63;;;2.95;;
21761;SDS011;11203;50.870;20.682;2022-07-12T07:00:48;6.28;;;2.80;;
21761;SDS011;11203;50.870;20.682;2022-07-12T07:03:14;4.10;;;1.70;;
21761;SDS011;11203;50.870;20.682;2022-07-12T07:05:40;3.22;;;1.83;;
21761;SDS011;11203;50.870;20.682;2022-07-12T07:08:06;4.85;;;1.83;;
21761;SDS011;11203;50.870;20.682;2022-07-12T07:10:32;3.88;;;1.67;;
21761;SDS011;11203;50.870;20.682;2022-07-12T07:12:59;1.92;;;1.30;;
21761;SDS011;11203;50.870;20.682;2022-07-12T07:15:26;3.03;;;1.40;;
21761;SDS011;11203;50.870;20.682;2022-07-12T07:17:52;2.58;;;1.20;;
21761;SDS011;11203;50.870;20.682;2022-07-12T07:20:18;3.58;;;2.25;;
21761;SDS011;11203;50.870;20.682;2022-07-12T07:22:44;4.75;;;1.50;;
21761;SDS011;11203;50.870;20.682;2022-07-12T07:25:10;1.20;;;1.10;;
21761;SDS011;11203;50.870;20.682;2022-07-12T07:27:36;1.88;;;1.20;;
21761;SDS011;11203;50.870;20.682;2022-07-12T07:30:04;2.65;;;1.20;;
21761;SDS011;11203;50.870;20.682;2022-07-12T07:32:50;3.63;;;1.33;;
21761;SDS011;11203;50.870;20.682;2022-07-12T07:35:16;1.20;;;1.10;;
21761;SDS011;11203;50.870;20.682;2022-07-12T07:37:42;3.30;;;2.00;;
21761;SDS011;11203;50.870;20.682;2022-07-12T07:40:08;3.60;;;1.50;;
21761;SDS011;11203;50.870;20.682;2022-07-12T07:42:35;3.72;;;1.13;;
21761;SDS011;11203;50.870;20.682;2022-07-12T07:45:00;1.58;;;1.02;;
21761;SDS011;11203;50.870;20.682;2022-07-12T07:47:28;3.10;;;1.60;;
21761;SDS011;11203;50.870;20.682;2022-07-12T07:49:54;2.63;;;1.52;;
21761;SDS011;11203;50.870;20.682;2022-07-12T07:52:21;1.70;;;1.23;;
21761;SDS011;11203;50.870;20.682;2022-07-12T07:54:47;3.55;;;1.25;;
21761;SDS011;11203;50.870;20.682;2022-07-12T07:57:13;4.22;;;1.98;;
21761;SDS011;11203;50.870;20.682;2022-07-12T07:59:39;3.35;;;1.27;;
21761;SDS011;11203;50.870;20.682;2022-07-12T08:02:05;3.58;;;2.30;;
21761;SDS011;11203;50.870;20.682;2022-07-12T08:04:31;4.47;;;2.05;;
21761;SDS011;11203;50.870;20.682;2022-07-12T08:06:57;1.42;;;0.70;;
21761;SDS011;11203;50.870;20.682;2022-07-12T08:09:23;3.75;;;1.75;;
21761;SDS011;11203;50.870;20.682;2022-07-12T08:11:49;6.95;;;2.15;;
21761;SDS011;11203;50.870;20.682;2022-07-12T08:14:15;4.85;;;3.15;;
21761;SDS011;11203;50.870;20.682;2022-07-12T08:16:41;4.20;;;2.03;;
21761;SDS011;11203;50.870;20.682;2022-07-12T08:19:07;3.75;;;1.15;;
21761;SDS011;11203;50.870;20.682;2022-07-12T08:21:34;2.53;;;1.30;;
21761;SDS011;11203;50.870;20.682;2022-07-12T08:24:00;5.60;;;3.08;;
21761;SDS011;11203;50.870;20.682;2022-07-12T08:26:26;3.13;;;2.10;;
21761;SDS011;11203;50.870;20.682;2022-07-12T08:28:52;3.20;;;2.20;;
21761;SDS011;11203;50.870;20.682;2022-07-12T08:31:18;3.45;;;1.98;;
21761;SDS011;11203;50.870;20.682;2022-07-12T08:33:44;4.32;;;2.47;;
21761;SDS011;11203;50.870;20.682;2022-07-12T08:36:11;3.00;;;2.40;;
21761;SDS011;11203;50.870;20.682;2022-07-12T08:38:37;3.33;;;2.20;;
21761;SDS011;11203;50.870;20.682;2022-07-12T08:41:04;3.67;;;1.80;;
21761;SDS011;11203;50.870;20.682;2022-07-12T08:43:34;5.55;;;2.20;;
21761;SDS011;11203;50.870;20.682;2022-07-12T08:46:09;3.90;;;1.80;;
21761;SDS011;11203;50.870;20.682;2022-07-12T08:48:37;5.28;;;2.35;;
21761;SDS011;11203;50.870;20.682;2022-07-12T08:51:11;1.83;;;1.20;;
21761;SDS011;11203;50.870;20.682;2022-07-12T08:53:40;4.15;;;2.55;;
21761;SDS011;11203;50.870;20.682;2022-07-12T08:56:07;5.13;;;2.75;;
21761;SDS011;11203;50.870;20.682;2022-07-12T08:59:10;2.83;;;1.58;;
21761;SDS011;11203;50.870;20.682;2022-07-12T09:01:48;3.88;;;2.22;;
21761;SDS011;11203;50.870;20.682;2022-07-12T09:04:18;2.60;;;1.58;;
21761;SDS011;11203;50.870;20.682;2022-07-12T09:06:47;5.75;;;1.25;;
21761;SDS011;11203;50.870;20.682;2022-07-12T09:12:00;3.40;;;1.52;;
21761;SDS011;11203;50.870;20.682;2022-07-12T09:14:27;2.15;;;1.20;;
21761;SDS011;11203;50.870;20.682;2022-07-12T09:17:06;2.97;;;1.00;;
21761;SDS011;11203;50.870;20.682;2022-07-12T09:19:38;3.05;;;1.80;;
21761;SDS011;11203;50.870;20.682;2022-07-12T09:22:13;7.88;;;1.20;;
21761;SDS011;11203;50.870;20.682;2022-07-12T09:24:44;2.20;;;1.20;;
21761;SDS011;11203;50.870;20.682;2022-07-12T09:27:10;3.92;;;1.02;;
21761;SDS011;11203;50.870;20.682;2022-07-12T09:29:48;4.57;;;1.23;;
21761;SDS011;11203;50.870;20.682;2022-07-12T09:32:15;5.35;;;1.27;;
21761;SDS011;11203;50.870;20.682;2022-07-12T09:35:00;1.75;;;1.00;;
21761;SDS011;11203;50.870;20.682;2022-07-12T09:37:46;3.17;;;1.20;;
21761;SDS011;11203;50.870;20.682;2022-07-12T09:40:12;1.65;;;1.00;;
21761;SDS011;11203;50.870;20.682;2022-07-12T09:42:39;1.73;;;1.10;;
21761;SDS011;11203;50.870;20.682;2022-07-12T09:45:09;6.03;;;2.10;;
21761;SDS011;11203;50.870;20.682;2022-07-12T09:47:36;4.18;;;1.35;;
21761;SDS011;11203;50.870;20.682;2022-07-12T09:50:05;3.05;;;1.30;;
21761;SDS011;11203;50.870;20.682;2022-07-12T09:52:36;7.28;;;1.60;;
21761;SDS011;11203;50.870;20.682;2022-07-12T09:55:04;2.33;;;0.90;;
21761;SDS011;11203;50.870;20.682;2022-07-12T09:57:34;1.42;;;0.90;;
21761;SDS011;11203;50.870;20.682;2022-07-12T10:00:05;5.43;;;1.30;;
21761;SDS011;11203;50.870;20.682;2022-07-12T10:02:35;4.25;;;1.75;;
21761;SDS011;11203;50.870;20.682;2022-07-12T10:05:02;3.95;;;1.50;;
21761;SDS011;11203;50.870;20.682;2022-07-12T10:07:33;4.13;;;1.38;;
21761;SDS011;11203;50.870;20.682;2022-07-12T10:09:59;0.90;;;0.70;;
21761;SDS011;11203;50.870;20.682;2022-07-12T10:12:25;4.18;;;1.10;;
21761;SDS011;11203;50.870;20.682;2022-07-12T10:14:53;2.25;;;0.75;;
21761;SDS011;11203;50.870;20.682;2022-07-12T10:17:24;3.97;;;1.40;;
21761;SDS011;11203;50.870;20.682;2022-07-12T10:22:47;4.97;;;1.48;;
21761;SDS011;11203;50.870;20.682;2022-07-12T10:25:31;5.88;;;1.75;;
21761;SDS011;11203;50.870;20.682;2022-07-12T10:27:59;3.30;;;1.27;;
21761;SDS011;11203;50.870;20.682;2022-07-12T10:30:27;1.30;;;0.93;;
21761;SDS011;11203;50.870;20.682;2022-07-12T10:32:55;3.88;;;1.40;;
21761;SDS011;11203;50.870;20.682;2022-07-12T10:35:26;2.13;;;1.13;;
21761;SDS011;11203;50.870;20.682;2022-07-12T10:40:40;2.33;;;0.98;;
21761;SDS011;11203;50.870;20.682;2022-07-12T10:45:39;2.70;;;1.30;;
21761;SDS011;11203;50.870;20.682;2022-07-12T10:48:08;2.80;;;1.60;;
21761;SDS011;11203;50.870;20.682;2022-07-12T10:53:20;5.30;;;2.88;;
21761;SDS011;11203;50.870;20.682;2022-07-12T10:58:51;2.08;;;1.23;;
21761;SDS011;11203;50.870;20.682;2022-07-12T11:01:25;3.28;;;2.15;;
21761;SDS011;11203;50.870;20.682;2022-07-12T11:06:54;2.85;;;1.40;;
21761;SDS011;11203;50.870;20.682;2022-07-12T11:09:23;3.88;;;1.70;;
21761;SDS011;11203;50.870;20.682;2022-07-12T11:11:51;3.30;;;1.40;;
21761;SDS011;11203;50.870;20.682;2022-07-12T11:14:21;0.82;;;0.77;;
21761;SDS011;11203;50.870;20.682;2022-07-12T11:16:54;6.03;;;1.90;;
21761;SDS011;11203;50.870;20.682;2022-07-12T11:19:25;2.83;;;1.88;;
21761;SDS011;11203;50.870;20.682;2022-07-12T11:21:54;4.43;;;2.38;;
21761;SDS011;11203;50.870;20.682;2022-07-12T11:24:26;2.05;;;1.30;;
21761;SDS011;11203;50.870;20.682;2022-07-12T11:26:57;4.50;;;1.35;;
21761;SDS011;11203;50.870;20.682;2022-07-12T11:29:27;3.55;;;1.45;;
21761;SDS011;11203;50.870;20.682;2022-07-12T11:32:00;3.85;;;1.45;;
21761;SDS011;11203;50.870;20.682;2022-07-12T11:34:34;1.70;;;1.20;;
21761;SDS011;11203;50.870;20.682;2022-07-12T11:37:00;2.38;;;1.30;;
21761;SDS011;11203;50.870;20.682;2022-07-12T11:39:36;3.17;;;1.33;;
21761;SDS011;11203;50.870;20.682;2022-07-12T11:42:05;5.00;;;1.38;;
21761;SDS011;11203;50.870;20.682;2022-07-12T11:44:49;5.28;;;1.52;;
21761;SDS011;11203;50.870;20.682;2022-07-12T11:47:17;2.72;;;1.77;;
21761;SDS011;11203;50.870;20.682;2022-07-12T11:49:47;7.10;;;1.73;;
21761;SDS011;11203;50.870;20.682;2022-07-12T11:52:19;3.45;;;1.17;;
21761;SDS011;11203;50.870;20.682;2022-07-12T11:54:47;2.40;;;1.33;;
21761;SDS011;11203;50.870;20.682;2022-07-12T11:57:18;3.45;;;1.30;;
21761;SDS011;11203;50.870;20.682;2022-07-12T11:59:49;5.20;;;1.50;;
21761;SDS011;11203;50.870;20.682;2022-07-12T12:02:15;3.67;;;1.40;;
21761;SDS011;11203;50.870;20.682;2022-07-12T12:04:46;2.03;;;1.10;;
21761;SDS011;11203;50.870;20.682;2022-07-12T12:07:19;4.22;;;1.55;;
21761;SDS011;11203;50.870;20.682;2022-07-12T12:10:09;1.13;;;0.85;;
21761;SDS011;11203;50.870;20.682;2022-07-12T12:15:13;1.55;;;0.82;;
21761;SDS011;11203;50.870;20.682;2022-07-12T12:17:46;2.92;;;1.40;;
21761;SDS011;11203;50.870;20.682;2022-07-12T12:20:19;2.47;;;0.93;;
21761;SDS011;11203;50.870;20.682;2022-07-12T12:22:53;1.20;;;0.90;;
21761;SDS011;11203;50.870;20.682;2022-07-12T12:25:20;2.53;;;1.10;;
21761;SDS011;11203;50.870;20.682;2022-07-12T12:27:58;3.40;;;1.67;;
21761;SDS011;11203;50.870;20.682;2022-07-12T12:30:27;4.10;;;1.45;;
21761;SDS011;11203;50.870;20.682;2022-07-12T12:32:57;2.00;;;1.50;;
21761;SDS011;11203;50.870;20.682;2022-07-12T12:35:38;8.88;;;2.85;;
21761;SDS011;11203;50.870;20.682;2022-07-12T12:38:11;4.03;;;1.95;;
21761;SDS011;11203;50.870;20.682;2022-07-12T12:40:49;4.07;;;1.45;;
21761;SDS011;11203;50.870;20.682;2022-07-12T12:43:19;3.92;;;1.20;;
21761;SDS011;11203;50.870;20.682;2022-07-12T12:45:50;3.08;;;1.27;;
21761;SDS011;11203;50.870;20.682;2022-07-12T12:48:19;6.90;;;1.50;;
21761;SDS011;11203;50.870;20.682;2022-07-12T12:50:48;3.92;;;1.42;;
21761;SDS011;11203;50.870;20.682;2022-07-12T12:53:16;1.88;;;0.90;;
21761;SDS011;11203;50.870;20.682;2022-07-12T12:55:48;2.92;;;1.20;;
21761;SDS011;11203;50.870;20.682;2022-07-12T12:58:17;2.80;;;1.40;;
21761;SDS011;11203;50.870;20.682;2022-07-12T13:00:45;4.43;;;1.52;;
21761;SDS011;11203;50.870;20.682;2022-07-12T13:03:14;5.13;;;1.35;;
21761;SDS011;11203;50.870;20.682;2022-07-12T13:05:45;6.35;;;1.20;;
21761;SDS011;11203;50.870;20.682;2022-07-12T13:08:13;1.85;;;1.00;;
21761;SDS011;11203;50.870;20.682;2022-07-12T13:10:41;3.45;;;0.90;;
21761;SDS011;11203;50.870;20.682;2022-07-12T13:13:09;2.53;;;1.10;;
21761;SDS011;11203;50.870;20.682;2022-07-12T13:15:37;1.95;;;0.85;;
21761;SDS011;11203;50.870;20.682;2022-07-12T13:18:04;2.08;;;1.30;;
21761;SDS011;11203;50.870;20.682;2022-07-12T13:20:31;4.72;;;1.17;;
21761;SDS011;11203;50.870;20.682;2022-07-12T13:22:58;1.45;;;0.95;;
21761;SDS011;11203;50.870;20.682;2022-07-12T13:25:25;3.28;;;1.20;;
21761;SDS011;11203;50.870;20.682;2022-07-12T13:27:52;3.03;;;1.20;;
21761;SDS011;11203;50.870;20.682;2022-07-12T13:30:18;2.00;;;1.05;;
21761;SDS011;11203;50.870;20.682;2022-07-12T13:32:45;1.65;;;1.20;;
21761;SDS011;11203;50.870;20.682;2022-07-12T13:35:12;4.90;;;1.15;;
21761;SDS011;11203;50.870;20.682;2022-07-12T13:37:39;1.40;;;1.15;;
21761;SDS011;11203;50.870;20.682;2022-07-12T13:40:07;1.23;;;1.13;;
21761;SDS011;11203;50.870;20.682;2022-07-12T13:42:37;1.85;;;1.30;;
21761;SDS011;11203;50.870;20.682;2022-07-12T13:45:05;1.55;;;1.08;;
21761;SDS011;11203;50.870;20.682;2022-07-12T13:47:35;3.55;;;1.30;;
21761;SDS011;11203;50.870;20.682;2022-07-12T13:50:02;2.35;;;1.48;;
21761;SDS011;11203;50.870;20.682;2022-07-12T13:52:29;8.45;;;1.20;;
21761;SDS011;11203;50.870;20.682;2022-07-12T13:54:55;4.20;;;1.80;;
21761;SDS011;11203;50.870;20.682;2022-07-12T13:57:22;2.35;;;1.30;;
21761;SDS011;11203;50.870;20.682;2022-07-12T13:59:48;7.53;;;1.00;;
21761;SDS011;11203;50.870;20.682;2022-07-12T14:02:15;1.73;;;1.13;;
21761;SDS011;11203;50.870;20.682;2022-07-12T14:04:41;2.85;;;1.00;;
21761;SDS011;11203;50.870;20.682;2022-07-12T14:07:07;3.88;;;1.00;;
21761;SDS011;11203;50.870;20.682;2022-07-12T14:09:33;2.53;;;0.95;;
21761;SDS011;11203;50.870;20.682;2022-07-12T14:12:00;1.80;;;0.80;;
21761;SDS011;11203;50.870;20.682;2022-07-12T14:14:27;4.32;;;0.93;;
21761;SDS011;11203;50.870;20.682;2022-07-12T14:17:12;1.15;;;0.80;;
21761;SDS011;11203;50.870;20.682;2022-07-12T14:19:39;2.05;;;1.08;;
21761;SDS011;11203;50.870;20.682;2022-07-12T14:22:05;2.22;;;0.90;;
21761;SDS011;11203;50.870;20.682;2022-07-12T14:24:31;0.88;;;0.80;;
21761;SDS011;11203;50.870;20.682;2022-07-12T14:26:57;4.10;;;1.00;;
21761;SDS011;11203;50.870;20.682;2022-07-12T14:29:23;1.25;;;0.90;;
21761;SDS011;11203;50.870;20.682;2022-07-12T14:31:50;2.95;;;0.95;;
21761;SDS011;11203;50.870;20.682;2022-07-12T14:34:17;5.88;;;0.93;;
21761;SDS011;11203;50.870;20.682;2022-07-12T14:36:44;3.15;;;0.90;;
21761;SDS011;11203;50.870;20.682;2022-07-12T14:39:10;2.80;;;0.93;;
21761;SDS011;11203;50.870;20.682;2022-07-12T14:41:36;3.10;;;0.93;;
21761;SDS011;11203;50.870;20.682;2022-07-12T14:44:02;1.95;;;0.90;;
21761;SDS011;11203;50.870;20.682;2022-07-12T14:46:32;2.65;;;0.93;;
21761;SDS011;11203;50.870;20.682;2022-07-12T14:48:59;2.15;;;1.00;;
21761;SDS011;11203;50.870;20.682;2022-07-12T14:51:25;3.60;;;1.38;;
21761;SDS011;11203;50.870;20.682;2022-07-12T14:53:51;1.80;;;0.90;;
21761;SDS011;11203;50.870;20.682;2022-07-12T14:56:18;3.80;;;0.93;;
21761;SDS011;11203;50.870;20.682;2022-07-12T14:58:44;2.13;;;0.80;;